Las Vegas, Nevada
Traffic Map
Current Weather Conditions
Las Vegas, Nevada
Scattered Clouds
Scattered Clouds
36°
Feels Like: 36°
Wind Chill: 36° Ceiling: Unl
Heat Index: 36° Visibility: 10mi
Dew Point: Wind: 12mph
Humidity: 18% Direction: 300° (WNW)
Pressure: 29.88in Gusts: 26mph
Raw Report DataKLAS 310456Z 30010G23KT 10SM FEW120 FEW160 SCT200 36/08 A2988 RMK AO2 SLP084 T03610078
Traffic Incident Summary
Active as of:
Severity:
Category:
InformationThere was an issue retrieving the traffic information for this location. Please try a different location or try again shortly.
Advertisements
Track Severe Weather on mobile